sensor_id;sensor_type;location;lat;lon;timestamp;P1;durP1;ratioP1;P2;durP2;ratioP2
60700;SDS011;46541;49.894;10.886;2023-04-25T00:00:17;3.85;;;3.20;;
60700;SDS011;46541;49.894;10.886;2023-04-25T00:02:44;5.18;;;3.40;;
60700;SDS011;46541;49.894;10.886;2023-04-25T00:05:12;4.70;;;3.35;;
60700;SDS011;46541;49.894;10.886;2023-04-25T00:07:41;4.22;;;3.08;;
60700;SDS011;46541;49.894;10.886;2023-04-25T00:10:09;4.55;;;3.35;;
60700;SDS011;46541;49.894;10.886;2023-04-25T00:12:37;4.25;;;2.85;;
60700;SDS011;46541;49.894;10.886;2023-04-25T00:15:05;3.75;;;3.42;;
60700;SDS011;46541;49.894;10.886;2023-04-25T00:17:32;4.88;;;3.17;;
60700;SDS011;46541;49.894;10.886;2023-04-25T00:20:01;3.63;;;2.95;;
60700;SDS011;46541;49.894;10.886;2023-04-25T00:22:31;4.97;;;3.35;;
60700;SDS011;46541;49.894;10.886;2023-04-25T00:24:59;5.65;;;2.95;;
60700;SDS011;46541;49.894;10.886;2023-04-25T00:27:26;4.72;;;3.10;;
60700;SDS011;46541;49.894;10.886;2023-04-25T00:29:53;4.13;;;2.92;;
60700;SDS011;46541;49.894;10.886;2023-04-25T00:32:19;4.25;;;2.90;;
60700;SDS011;46541;49.894;10.886;2023-04-25T00:34:46;3.28;;;2.80;;
60700;SDS011;46541;49.894;10.886;2023-04-25T00:37:13;3.92;;;3.00;;
60700;SDS011;46541;49.894;10.886;2023-04-25T00:39:40;6.57;;;4.30;;
60700;SDS011;46541;49.894;10.886;2023-04-25T00:42:07;3.72;;;3.08;;
60700;SDS011;46541;49.894;10.886;2023-04-25T00:44:34;4.95;;;3.13;;
60700;SDS011;46541;49.894;10.886;2023-04-25T00:47:02;4.63;;;3.00;;
60700;SDS011;46541;49.894;10.886;2023-04-25T00:49:29;4.53;;;3.08;;
60700;SDS011;46541;49.894;10.886;2023-04-25T00:51:56;4.30;;;3.10;;
60700;SDS011;46541;49.894;10.886;2023-04-25T00:54:23;7.55;;;2.72;;
60700;SDS011;46541;49.894;10.886;2023-04-25T00:56:50;6.82;;;3.17;;
60700;SDS011;46541;49.894;10.886;2023-04-25T00:59:17;5.75;;;3.15;;
60700;SDS011;46541;49.894;10.886;2023-04-25T01:01:46;4.72;;;3.10;;
60700;SDS011;46541;49.894;10.886;2023-04-25T01:04:13;5.15;;;3.30;;
60700;SDS011;46541;49.894;10.886;2023-04-25T01:06:40;6.22;;;3.60;;
60700;SDS011;46541;49.894;10.886;2023-04-25T01:09:07;5.40;;;3.25;;
60700;SDS011;46541;49.894;10.886;2023-04-25T01:11:34;7.10;;;3.08;;
60700;SDS011;46541;49.894;10.886;2023-04-25T01:14:00;4.47;;;3.53;;
60700;SDS011;46541;49.894;10.886;2023-04-25T01:16:28;3.83;;;3.30;;
60700;SDS011;46541;49.894;10.886;2023-04-25T01:18:55;4.07;;;2.90;;
60700;SDS011;46541;49.894;10.886;2023-04-25T01:21:22;4.78;;;3.00;;
60700;SDS011;46541;49.894;10.886;2023-04-25T01:23:49;3.97;;;3.40;;
60700;SDS011;46541;49.894;10.886;2023-04-25T01:26:16;3.83;;;3.42;;
60700;SDS011;46541;49.894;10.886;2023-04-25T01:28:43;3.55;;;3.05;;
60700;SDS011;46541;49.894;10.886;2023-04-25T01:31:11;6.05;;;3.45;;
60700;SDS011;46541;49.894;10.886;2023-04-25T01:33:38;5.65;;;3.47;;
60700;SDS011;46541;49.894;10.886;2023-04-25T01:36:05;5.35;;;4.03;;
60700;SDS011;46541;49.894;10.886;2023-04-25T01:38:32;4.57;;;3.58;;
60700;SDS011;46541;49.894;10.886;2023-04-25T01:40:59;4.78;;;3.55;;
60700;SDS011;46541;49.894;10.886;2023-04-25T01:43:26;4.63;;;3.83;;
60700;SDS011;46541;49.894;10.886;2023-04-25T01:45:52;4.88;;;3.78;;
60700;SDS011;46541;49.894;10.886;2023-04-25T01:48:19;5.38;;;3.45;;
60700;SDS011;46541;49.894;10.886;2023-04-25T01:50:46;5.22;;;3.80;;
60700;SDS011;46541;49.894;10.886;2023-04-25T01:53:14;5.18;;;3.75;;
60700;SDS011;46541;49.894;10.886;2023-04-25T01:55:41;6.47;;;4.28;;
60700;SDS011;46541;49.894;10.886;2023-04-25T01:58:08;5.63;;;4.43;;
60700;SDS011;46541;49.894;10.886;2023-04-25T02:00:39;7.25;;;4.18;;
60700;SDS011;46541;49.894;10.886;2023-04-25T02:03:06;7.30;;;4.38;;
60700;SDS011;46541;49.894;10.886;2023-04-25T02:05:37;5.43;;;3.85;;
60700;SDS011;46541;49.894;10.886;2023-04-25T02:08:05;6.93;;;4.88;;
60700;SDS011;46541;49.894;10.886;2023-04-25T02:10:33;4.55;;;3.78;;
60700;SDS011;46541;49.894;10.886;2023-04-25T02:13:01;7.25;;;4.60;;
60700;SDS011;46541;49.894;10.886;2023-04-25T02:15:28;5.13;;;4.15;;
60700;SDS011;46541;49.894;10.886;2023-04-25T02:17:55;9.60;;;4.65;;
60700;SDS011;46541;49.894;10.886;2023-04-25T02:20:22;8.13;;;4.38;;
60700;SDS011;46541;49.894;10.886;2023-04-25T02:22:50;6.55;;;4.57;;
60700;SDS011;46541;49.894;10.886;2023-04-25T02:25:17;7.05;;;4.57;;
60700;SDS011;46541;49.894;10.886;2023-04-25T02:27:46;4.68;;;4.07;;
60700;SDS011;46541;49.894;10.886;2023-04-25T02:30:14;5.63;;;4.00;;
60700;SDS011;46541;49.894;10.886;2023-04-25T02:32:41;7.28;;;4.75;;
60700;SDS011;46541;49.894;10.886;2023-04-25T02:35:08;7.05;;;5.10;;
60700;SDS011;46541;49.894;10.886;2023-04-25T02:37:36;5.57;;;4.30;;
60700;SDS011;46541;49.894;10.886;2023-04-25T02:40:04;5.20;;;4.10;;
60700;SDS011;46541;49.894;10.886;2023-04-25T02:42:32;6.38;;;5.15;;
60700;SDS011;46541;49.894;10.886;2023-04-25T02:44:59;5.90;;;4.15;;
60700;SDS011;46541;49.894;10.886;2023-04-25T02:47:26;6.55;;;4.78;;
60700;SDS011;46541;49.894;10.886;2023-04-25T02:49:53;5.65;;;4.05;;
60700;SDS011;46541;49.894;10.886;2023-04-25T02:52:20;6.57;;;4.28;;
60700;SDS011;46541;49.894;10.886;2023-04-25T02:54:47;9.02;;;5.80;;
60700;SDS011;46541;49.894;10.886;2023-04-25T02:57:13;6.15;;;4.57;;
60700;SDS011;46541;49.894;10.886;2023-04-25T02:59:40;8.90;;;4.85;;
60700;SDS011;46541;49.894;10.886;2023-04-25T03:02:07;5.00;;;4.32;;
60700;SDS011;46541;49.894;10.886;2023-04-25T03:04:34;6.28;;;5.15;;
60700;SDS011;46541;49.894;10.886;2023-04-25T03:07:01;7.03;;;4.97;;
60700;SDS011;46541;49.894;10.886;2023-04-25T03:09:27;6.53;;;4.78;;
60700;SDS011;46541;49.894;10.886;2023-04-25T03:11:54;6.72;;;4.68;;
60700;SDS011;46541;49.894;10.886;2023-04-25T03:14:21;5.28;;;4.15;;
60700;SDS011;46541;49.894;10.886;2023-04-25T03:16:47;6.55;;;4.65;;
60700;SDS011;46541;49.894;10.886;2023-04-25T03:19:14;6.90;;;4.90;;
60700;SDS011;46541;49.894;10.886;2023-04-25T03:21:43;6.43;;;4.63;;
60700;SDS011;46541;49.894;10.886;2023-04-25T03:24:11;5.68;;;3.67;;
60700;SDS011;46541;49.894;10.886;2023-04-25T03:26:38;7.63;;;4.68;;
60700;SDS011;46541;49.894;10.886;2023-04-25T03:29:05;8.10;;;4.90;;
60700;SDS011;46541;49.894;10.886;2023-04-25T03:31:32;9.02;;;4.80;;
60700;SDS011;46541;49.894;10.886;2023-04-25T03:33:59;6.05;;;5.00;;
60700;SDS011;46541;49.894;10.886;2023-04-25T03:36:25;6.00;;;4.80;;
60700;SDS011;46541;49.894;10.886;2023-04-25T03:38:52;7.43;;;5.20;;
60700;SDS011;46541;49.894;10.886;2023-04-25T03:41:19;6.47;;;5.13;;
60700;SDS011;46541;49.894;10.886;2023-04-25T03:43:46;7.22;;;5.07;;
60700;SDS011;46541;49.894;10.886;2023-04-25T03:46:13;7.35;;;4.53;;
60700;SDS011;46541;49.894;10.886;2023-04-25T03:48:40;7.15;;;4.90;;
60700;SDS011;46541;49.894;10.886;2023-04-25T03:51:07;6.65;;;4.90;;
60700;SDS011;46541;49.894;10.886;2023-04-25T03:53:33;5.85;;;4.68;;
60700;SDS011;46541;49.894;10.886;2023-04-25T03:56:00;4.88;;;4.10;;
60700;SDS011;46541;49.894;10.886;2023-04-25T03:58:27;6.75;;;4.20;;
60700;SDS011;46541;49.894;10.886;2023-04-25T04:00:54;5.93;;;4.00;;
60700;SDS011;46541;49.894;10.886;2023-04-25T04:03:20;7.07;;;4.80;;
60700;SDS011;46541;49.894;10.886;2023-04-25T04:05:47;4.82;;;3.85;;
60700;SDS011;46541;49.894;10.886;2023-04-25T04:08:15;6.43;;;4.30;;
60700;SDS011;46541;49.894;10.886;2023-04-25T04:10:41;4.28;;;3.55;;
60700;SDS011;46541;49.894;10.886;2023-04-25T04:13:08;4.95;;;3.75;;
60700;SDS011;46541;49.894;10.886;2023-04-25T04:15:35;5.47;;;4.60;;
60700;SDS011;46541;49.894;10.886;2023-04-25T04:18:02;7.35;;;4.57;;
60700;SDS011;46541;49.894;10.886;2023-04-25T04:20:29;5.40;;;4.18;;
60700;SDS011;46541;49.894;10.886;2023-04-25T04:22:58;5.60;;;3.85;;
60700;SDS011;46541;49.894;10.886;2023-04-25T04:25:25;5.05;;;4.15;;
60700;SDS011;46541;49.894;10.886;2023-04-25T04:27:52;5.28;;;4.30;;
60700;SDS011;46541;49.894;10.886;2023-04-25T04:30:21;5.78;;;3.67;;
60700;SDS011;46541;49.894;10.886;2023-04-25T04:32:50;8.23;;;3.90;;
60700;SDS011;46541;49.894;10.886;2023-04-25T04:35:18;8.05;;;4.10;;
60700;SDS011;46541;49.894;10.886;2023-04-25T04:37:44;5.22;;;3.33;;
60700;SDS011;46541;49.894;10.886;2023-04-25T04:40:12;5.45;;;3.17;;
60700;SDS011;46541;49.894;10.886;2023-04-25T04:42:42;3.83;;;3.22;;
60700;SDS011;46541;49.894;10.886;2023-04-25T04:45:09;3.97;;;3.42;;
60700;SDS011;46541;49.894;10.886;2023-04-25T04:47:36;3.65;;;3.05;;
60700;SDS011;46541;49.894;10.886;2023-04-25T04:50:09;6.05;;;4.47;;
60700;SDS011;46541;49.894;10.886;2023-04-25T04:52:36;5.82;;;3.92;;
60700;SDS011;46541;49.894;10.886;2023-04-25T04:55:04;5.07;;;3.38;;
60700;SDS011;46541;49.894;10.886;2023-04-25T04:57:31;4.65;;;3.58;;
60700;SDS011;46541;49.894;10.886;2023-04-25T04:59:59;4.57;;;3.45;;
60700;SDS011;46541;49.894;10.886;2023-04-25T05:02:25;5.63;;;3.95;;
60700;SDS011;46541;49.894;10.886;2023-04-25T05:04:53;6.28;;;3.83;;
60700;SDS011;46541;49.894;10.886;2023-04-25T05:07:22;5.22;;;3.25;;
60700;SDS011;46541;49.894;10.886;2023-04-25T05:09:48;4.38;;;3.30;;
60700;SDS011;46541;49.894;10.886;2023-04-25T05:12:15;5.95;;;4.45;;
60700;SDS011;46541;49.894;10.886;2023-04-25T05:14:42;5.03;;;3.55;;
60700;SDS011;46541;49.894;10.886;2023-04-25T05:17:08;6.80;;;4.78;;
60700;SDS011;46541;49.894;10.886;2023-04-25T05:19:35;5.68;;;4.05;;
60700;SDS011;46541;49.894;10.886;2023-04-25T05:22:02;5.15;;;3.63;;
60700;SDS011;46541;49.894;10.886;2023-04-25T05:24:29;7.82;;;4.65;;
60700;SDS011;46541;49.894;10.886;2023-04-25T05:26:56;5.05;;;3.65;;
60700;SDS011;46541;49.894;10.886;2023-04-25T05:29:23;4.82;;;3.38;;
60700;SDS011;46541;49.894;10.886;2023-04-25T05:31:50;6.32;;;4.18;;
60700;SDS011;46541;49.894;10.886;2023-04-25T05:34:17;6.47;;;4.57;;
60700;SDS011;46541;49.894;10.886;2023-04-25T05:36:43;7.57;;;4.97;;
60700;SDS011;46541;49.894;10.886;2023-04-25T05:39:10;10.25;;;5.85;;
60700;SDS011;46541;49.894;10.886;2023-04-25T05:41:37;7.45;;;5.35;;
60700;SDS011;46541;49.894;10.886;2023-04-25T05:44:04;8.13;;;6.00;;
60700;SDS011;46541;49.894;10.886;2023-04-25T05:46:30;7.15;;;5.75;;
60700;SDS011;46541;49.894;10.886;2023-04-25T05:48:57;11.85;;;6.32;;
60700;SDS011;46541;49.894;10.886;2023-04-25T05:51:24;6.72;;;5.20;;
60700;SDS011;46541;49.894;10.886;2023-04-25T05:53:52;8.10;;;5.68;;
60700;SDS011;46541;49.894;10.886;2023-04-25T05:56:18;6.82;;;4.60;;
60700;SDS011;46541;49.894;10.886;2023-04-25T05:58:45;9.80;;;6.32;;
60700;SDS011;46541;49.894;10.886;2023-04-25T06:01:13;9.75;;;6.35;;
60700;SDS011;46541;49.894;10.886;2023-04-25T06:03:40;6.70;;;5.40;;
60700;SDS011;46541;49.894;10.886;2023-04-25T06:06:09;7.78;;;6.57;;
60700;SDS011;46541;49.894;10.886;2023-04-25T06:08:37;10.80;;;6.32;;
60700;SDS011;46541;49.894;10.886;2023-04-25T06:11:04;8.90;;;5.88;;
60700;SDS011;46541;49.894;10.886;2023-04-25T06:13:31;7.93;;;6.28;;
60700;SDS011;46541;49.894;10.886;2023-04-25T06:15:58;8.10;;;6.45;;
60700;SDS011;46541;49.894;10.886;2023-04-25T06:18:24;11.38;;;5.80;;
60700;SDS011;46541;49.894;10.886;2023-04-25T06:20:51;9.63;;;7.05;;
60700;SDS011;46541;49.894;10.886;2023-04-25T06:23:18;8.07;;;6.43;;
60700;SDS011;46541;49.894;10.886;2023-04-25T06:25:44;9.18;;;6.55;;
60700;SDS011;46541;49.894;10.886;2023-04-25T06:28:11;9.05;;;7.43;;
60700;SDS011;46541;49.894;10.886;2023-04-25T06:30:38;9.93;;;7.25;;
60700;SDS011;46541;49.894;10.886;2023-04-25T06:33:05;11.60;;;7.30;;
60700;SDS011;46541;49.894;10.886;2023-04-25T06:35:31;9.25;;;7.03;;
60700;SDS011;46541;49.894;10.886;2023-04-25T06:37:58;10.18;;;7.78;;
60700;SDS011;46541;49.894;10.886;2023-04-25T06:40:25;8.48;;;6.70;;
60700;SDS011;46541;49.894;10.886;2023-04-25T06:42:52;10.77;;;7.65;;
60700;SDS011;46541;49.894;10.886;2023-04-25T06:45:18;9.07;;;7.18;;
60700;SDS011;46541;49.894;10.886;2023-04-25T06:47:45;9.02;;;7.53;;
60700;SDS011;46541;49.894;10.886;2023-04-25T06:50:12;10.68;;;7.63;;
60700;SDS011;46541;49.894;10.886;2023-04-25T06:52:39;9.77;;;7.50;;
60700;SDS011;46541;49.894;10.886;2023-04-25T06:55:06;12.48;;;7.63;;
60700;SDS011;46541;49.894;10.886;2023-04-25T06:57:32;11.60;;;7.43;;
60700;SDS011;46541;49.894;10.886;2023-04-25T06:59:59;9.85;;;7.80;;
60700;SDS011;46541;49.894;10.886;2023-04-25T07:02:27;11.05;;;7.65;;
60700;SDS011;46541;49.894;10.886;2023-04-25T07:04:54;9.18;;;7.50;;
60700;SDS011;46541;49.894;10.886;2023-04-25T07:07:26;11.48;;;7.90;;
60700;SDS011;46541;49.894;10.886;2023-04-25T07:09:53;11.35;;;8.77;;
60700;SDS011;46541;49.894;10.886;2023-04-25T07:12:19;9.02;;;6.15;;
60700;SDS011;46541;49.894;10.886;2023-04-25T07:14:46;8.18;;;6.13;;
60700;SDS011;46541;49.894;10.886;2023-04-25T07:17:13;9.60;;;6.57;;
60700;SDS011;46541;49.894;10.886;2023-04-25T07:19:40;10.65;;;6.25;;
60700;SDS011;46541;49.894;10.886;2023-04-25T07:22:06;7.15;;;5.80;;
60700;SDS011;46541;49.894;10.886;2023-04-25T07:24:33;7.68;;;5.60;;
60700;SDS011;46541;49.894;10.886;2023-04-25T07:27:00;7.55;;;5.47;;
60700;SDS011;46541;49.894;10.886;2023-04-25T07:29:27;7.53;;;5.18;;
60700;SDS011;46541;49.894;10.886;2023-04-25T07:31:54;11.40;;;5.03;;
60700;SDS011;46541;49.894;10.886;2023-04-25T07:34:21;5.80;;;3.97;;
60700;SDS011;46541;49.894;10.886;2023-04-25T07:36:47;8.55;;;5.00;;
60700;SDS011;46541;49.894;10.886;2023-04-25T07:39:14;7.32;;;4.95;;
60700;SDS011;46541;49.894;10.886;2023-04-25T07:41:41;11.30;;;5.03;;
60700;SDS011;46541;49.894;10.886;2023-04-25T07:44:08;6.22;;;3.90;;
60700;SDS011;46541;49.894;10.886;2023-04-25T07:46:34;5.88;;;4.47;;
60700;SDS011;46541;49.894;10.886;2023-04-25T07:49:01;6.25;;;4.25;;
60700;SDS011;46541;49.894;10.886;2023-04-25T07:51:28;5.70;;;4.00;;
60700;SDS011;46541;49.894;10.886;2023-04-25T07:53:55;7.03;;;3.85;;
60700;SDS011;46541;49.894;10.886;2023-04-25T07:56:22;5.65;;;3.33;;
60700;SDS011;46541;49.894;10.886;2023-04-25T07:58:48;5.57;;;3.42;;
60700;SDS011;46541;49.894;10.886;2023-04-25T08:01:16;6.93;;;3.22;;
60700;SDS011;46541;49.894;10.886;2023-04-25T08:03:42;6.07;;;3.70;;
60700;SDS011;46541;49.894;10.886;2023-04-25T08:06:11;6.32;;;3.30;;
60700;SDS011;46541;49.894;10.886;2023-04-25T08:08:38;5.18;;;3.25;;
60700;SDS011;46541;49.894;10.886;2023-04-25T08:11:05;5.82;;;3.97;;
60700;SDS011;46541;49.894;10.886;2023-04-25T08:13:31;5.70;;;3.15;;
60700;SDS011;46541;49.894;10.886;2023-04-25T08:15:58;3.38;;;3.08;;
60700;SDS011;46541;49.894;10.886;2023-04-25T08:18:25;4.45;;;2.70;;
60700;SDS011;46541;49.894;10.886;2023-04-25T08:20:52;6.20;;;2.95;;
60700;SDS011;46541;49.894;10.886;2023-04-25T08:23:19;5.40;;;2.42;;
60700;SDS011;46541;49.894;10.886;2023-04-25T08:25:46;3.95;;;2.03;;
60700;SDS011;46541;49.894;10.886;2023-04-25T08:28:13;4.20;;;2.10;;
60700;SDS011;46541;49.894;10.886;2023-04-25T08:30:40;5.03;;;1.95;;
60700;SDS011;46541;49.894;10.886;2023-04-25T08:33:06;4.28;;;2.22;;
60700;SDS011;46541;49.894;10.886;2023-04-25T08:35:33;4.88;;;2.20;;
60700;SDS011;46541;49.894;10.886;2023-04-25T08:38:00;3.67;;;1.95;;
60700;SDS011;46541;49.894;10.886;2023-04-25T08:40:27;4.18;;;1.88;;
60700;SDS011;46541;49.894;10.886;2023-04-25T08:42:59;4.07;;;2.38;;
60700;SDS011;46541;49.894;10.886;2023-04-25T08:45:29;4.38;;;2.97;;
60700;SDS011;46541;49.894;10.886;2023-04-25T08:47:58;4.07;;;2.42;;
60700;SDS011;46541;49.894;10.886;2023-04-25T08:50:26;4.47;;;3.40;;
60700;SDS011;46541;49.894;10.886;2023-04-25T08:52:53;17.23;;;7.85;;
60700;SDS011;46541;49.894;10.886;2023-04-25T08:55:21;5.28;;;2.83;;
60700;SDS011;46541;49.894;10.886;2023-04-25T08:57:49;4.60;;;3.10;;
60700;SDS011;46541;49.894;10.886;2023-04-25T09:00:16;8.55;;;3.10;;
60700;SDS011;46541;49.894;10.886;2023-04-25T09:02:44;3.20;;;2.47;;
60700;SDS011;46541;49.894;10.886;2023-04-25T09:05:13;4.70;;;2.60;;
60700;SDS011;46541;49.894;10.886;2023-04-25T09:07:40;4.15;;;2.90;;
60700;SDS011;46541;49.894;10.886;2023-04-25T09:10:06;5.63;;;2.78;;
60700;SDS011;46541;49.894;10.886;2023-04-25T09:12:34;3.50;;;2.08;;
60700;SDS011;46541;49.894;10.886;2023-04-25T09:15:08;5.15;;;2.83;;
60700;SDS011;46541;49.894;10.886;2023-04-25T09:17:38;5.57;;;2.60;;
60700;SDS011;46541;49.894;10.886;2023-04-25T09:20:11;4.47;;;2.35;;
60700;SDS011;46541;49.894;10.886;2023-04-25T09:22:39;5.13;;;2.58;;
60700;SDS011;46541;49.894;10.886;2023-04-25T09:25:10;4.10;;;2.15;;
60700;SDS011;46541;49.894;10.886;2023-04-25T09:27:50;4.07;;;2.65;;
60700;SDS011;46541;49.894;10.886;2023-04-25T09:30:18;3.45;;;2.08;;
60700;SDS011;46541;49.894;10.886;2023-04-25T09:32:57;7.18;;;2.80;;
60700;SDS011;46541;49.894;10.886;2023-04-25T09:35:30;3.75;;;1.90;;
60700;SDS011;46541;49.894;10.886;2023-04-25T09:38:08;6.60;;;3.08;;
60700;SDS011;46541;49.894;10.886;2023-04-25T09:40:44;4.95;;;2.45;;
60700;SDS011;46541;49.894;10.886;2023-04-25T09:43:24;7.57;;;2.60;;
60700;SDS011;46541;49.894;10.886;2023-04-25T09:45:52;7.00;;;2.30;;
60700;SDS011;46541;49.894;10.886;2023-04-25T09:48:24;5.80;;;2.30;;
60700;SDS011;46541;49.894;10.886;2023-04-25T09:53:38;6.30;;;3.17;;
60700;SDS011;46541;49.894;10.886;2023-04-25T09:56:12;3.83;;;1.98;;
60700;SDS011;46541;49.894;10.886;2023-04-25T09:58:40;2.00;;;1.58;;
60700;SDS011;46541;49.894;10.886;2023-04-25T10:01:07;2.45;;;1.70;;
60700;SDS011;46541;49.894;10.886;2023-04-25T10:03:36;2.65;;;1.50;;
60700;SDS011;46541;49.894;10.886;2023-04-25T10:06:11;5.35;;;2.83;;
60700;SDS011;46541;49.894;10.886;2023-04-25T10:08:40;4.80;;;2.10;;
60700;SDS011;46541;49.894;10.886;2023-04-25T10:11:08;2.40;;;1.40;;
60700;SDS011;46541;49.894;10.886;2023-04-25T10:13:35;5.05;;;2.17;;
60700;SDS011;46541;49.894;10.886;2023-04-25T10:16:03;3.10;;;1.50;;
60700;SDS011;46541;49.894;10.886;2023-04-25T10:18:31;1.90;;;1.17;;
60700;SDS011;46541;49.894;10.886;2023-04-25T10:21:02;1.75;;;1.10;;
60700;SDS011;46541;49.894;10.886;2023-04-25T10:23:31;3.17;;;0.98;;
60700;SDS011;46541;49.894;10.886;2023-04-25T10:26:00;2.55;;;1.48;;
60700;SDS011;46541;49.894;10.886;2023-04-25T10:28:27;1.00;;;0.93;;
60700;SDS011;46541;49.894;10.886;2023-04-25T10:33:29;3.90;;;0.90;;
60700;SDS011;46541;49.894;10.886;2023-04-25T10:36:13;1.98;;;0.95;;
60700;SDS011;46541;49.894;10.886;2023-04-25T10:38:50;2.88;;;1.60;;
60700;SDS011;46541;49.894;10.886;2023-04-25T10:41:19;3.45;;;1.23;;
60700;SDS011;46541;49.894;10.886;2023-04-25T10:43:46;3.10;;;1.42;;
60700;SDS011;46541;49.894;10.886;2023-04-25T10:48:48;3.53;;;1.00;;
60700;SDS011;46541;49.894;10.886;2023-04-25T10:51:17;2.03;;;0.93;;
60700;SDS011;46541;49.894;10.886;2023-04-25T10:56:22;3.47;;;1.00;;
60700;SDS011;46541;49.894;10.886;2023-04-25T10:58:51;0.63;;;0.60;;
60700;SDS011;46541;49.894;10.886;2023-04-25T11:01:20;1.00;;;0.90;;
60700;SDS011;46541;49.894;10.886;2023-04-25T11:03:56;2.65;;;2.00;;
60700;SDS011;46541;49.894;10.886;2023-04-25T11:08:57;2.83;;;1.00;;
60700;SDS011;46541;49.894;10.886;2023-04-25T11:11:28;6.30;;;5.57;;
60700;SDS011;46541;49.894;10.886;2023-04-25T11:13:55;2.88;;;2.00;;
60700;SDS011;46541;49.894;10.886;2023-04-25T11:16:23;3.58;;;2.65;;
60700;SDS011;46541;49.894;10.886;2023-04-25T11:18:56;4.63;;;2.75;;
60700;SDS011;46541;49.894;10.886;2023-04-25T11:21:25;2.17;;;1.23;;
60700;SDS011;46541;49.894;10.886;2023-04-25T11:23:58;2.72;;;1.65;;
60700;SDS011;46541;49.894;10.886;2023-04-25T11:26:26;1.52;;;1.15;;
60700;SDS011;46541;49.894;10.886;2023-04-25T11:28:57;1.75;;;1.20;;
60700;SDS011;46541;49.894;10.886;2023-04-25T11:31:25;1.77;;;1.13;;
60700;SDS011;46541;49.894;10.886;2023-04-25T11:33:58;1.60;;;1.05;;
60700;SDS011;46541;49.894;10.886;2023-04-25T11:36:25;1.55;;;1.08;;
60700;SDS011;46541;49.894;10.886;2023-04-25T11:38:53;2.45;;;2.03;;
60700;SDS011;46541;49.894;10.886;2023-04-25T11:41:20;8.07;;;6.82;;
60700;SDS011;46541;49.894;10.886;2023-04-25T11:43:48;6.80;;;5.97;;
60700;SDS011;46541;49.894;10.886;2023-04-25T11:46:18;3.13;;;2.50;;
60700;SDS011;46541;49.894;10.886;2023-04-25T11:48:46;3.55;;;2.50;;
60700;SDS011;46541;49.894;10.886;2023-04-25T11:51:14;4.85;;;3.63;;
60700;SDS011;46541;49.894;10.886;2023-04-25T11:53:41;3.60;;;2.28;;
60700;SDS011;46541;49.894;10.886;2023-04-25T11:56:10;4.70;;;2.90;;
60700;SDS011;46541;49.894;10.886;2023-04-25T12:01:41;2.38;;;1.55;;
60700;SDS011;46541;49.894;10.886;2023-04-25T12:04:15;3.65;;;2.17;;
60700;SDS011;46541;49.894;10.886;2023-04-25T12:07:02;2.55;;;1.92;;
60700;SDS011;46541;49.894;10.886;2023-04-25T12:11:57;4.00;;;1.95;;
60700;SDS011;46541;49.894;10.886;2023-04-25T12:14:26;2.40;;;1.88;;
60700;SDS011;46541;49.894;10.886;2023-04-25T12:16:54;3.65;;;2.42;;
60700;SDS011;46541;49.894;10.886;2023-04-25T12:19:23;4.53;;;2.10;;
60700;SDS011;46541;49.894;10.886;2023-04-25T12:21:51;3.17;;;1.83;;
60700;SDS011;46541;49.894;10.886;2023-04-25T12:24:25;4.15;;;1.75;;
60700;SDS011;46541;49.894;10.886;2023-04-25T12:27:01;3.08;;;1.90;;
60700;SDS011;46541;49.894;10.886;2023-04-25T12:29:31;5.93;;;3.65;;
60700;SDS011;46541;49.894;10.886;2023-04-25T12:32:13;3.63;;;1.70;;
60700;SDS011;46541;49.894;10.886;2023-04-25T12:34:40;5.00;;;1.52;;
60700;SDS011;46541;49.894;10.886;2023-04-25T12:37:06;2.67;;;1.30;;
60700;SDS011;46541;49.894;10.886;2023-04-25T12:39:33;3.80;;;1.50;;
60700;SDS011;46541;49.894;10.886;2023-04-25T12:42:00;3.22;;;1.65;;
60700;SDS011;46541;49.894;10.886;2023-04-25T12:44:27;2.38;;;1.10;;
60700;SDS011;46541;49.894;10.886;2023-04-25T12:46:53;2.08;;;1.63;;
60700;SDS011;46541;49.894;10.886;2023-04-25T12:49:21;2.67;;;1.60;;
60700;SDS011;46541;49.894;10.886;2023-04-25T12:51:48;1.83;;;1.42;;
60700;SDS011;46541;49.894;10.886;2023-04-25T12:54:15;3.90;;;1.30;;
60700;SDS011;46541;49.894;10.886;2023-04-25T12:56:42;1.73;;;1.38;;
60700;SDS011;46541;49.894;10.886;2023-04-25T12:59:09;2.78;;;1.58;;
60700;SDS011;46541;49.894;10.886;2023-04-25T13:01:35;2.42;;;1.40;;
60700;SDS011;46541;49.894;10.886;2023-04-25T13:04:03;2.42;;;1.60;;
60700;SDS011;46541;49.894;10.886;2023-04-25T13:06:30;3.47;;;1.58;;
60700;SDS011;46541;49.894;10.886;2023-04-25T13:08:57;3.42;;;1.77;;
60700;SDS011;46541;49.894;10.886;2023-04-25T13:11:24;3.42;;;1.90;;
60700;SDS011;46541;49.894;10.886;2023-04-25T13:13:50;3.25;;;2.13;;
60700;SDS011;46541;49.894;10.886;2023-04-25T13:16:18;2.30;;;1.55;;
60700;SDS011;46541;49.894;10.886;2023-04-25T13:18:47;1.98;;;1.50;;
60700;SDS011;46541;49.894;10.886;2023-04-25T13:21:14;1.65;;;1.40;;
60700;SDS011;46541;49.894;10.886;2023-04-25T13:23:41;2.78;;;1.48;;
60700;SDS011;46541;49.894;10.886;2023-04-25T13:26:09;2.47;;;1.77;;
60700;SDS011;46541;49.894;10.886;2023-04-25T13:28:36;2.33;;;1.70;;
60700;SDS011;46541;49.894;10.886;2023-04-25T13:31:03;3.22;;;1.80;;
60700;SDS011;46541;49.894;10.886;2023-04-25T13:33:29;1.33;;;1.10;;
60700;SDS011;46541;49.894;10.886;2023-04-25T13:35:56;5.40;;;1.35;;
60700;SDS011;46541;49.894;10.886;2023-04-25T13:38:24;1.40;;;1.30;;
60700;SDS011;46541;49.894;10.886;2023-04-25T13:40:52;4.45;;;1.92;;
60700;SDS011;46541;49.894;10.886;2023-04-25T13:43:22;2.38;;;1.40;;
60700;SDS011;46541;49.894;10.886;2023-04-25T13:45:49;3.28;;;1.70;;
60700;SDS011;46541;49.894;10.886;2023-04-25T13:48:17;7.68;;;3.70;;
60700;SDS011;46541;49.894;10.886;2023-04-25T13:50:44;1.80;;;1.60;;
60700;SDS011;46541;49.894;10.886;2023-04-25T13:53:11;2.63;;;1.92;;
60700;SDS011;46541;49.894;10.886;2023-04-25T13:55:38;3.53;;;1.52;;
60700;SDS011;46541;49.894;10.886;2023-04-25T13:58:05;2.15;;;1.20;;
60700;SDS011;46541;49.894;10.886;2023-04-25T14:00:36;2.33;;;1.30;;
60700;SDS011;46541;49.894;10.886;2023-04-25T14:03:09;2.95;;;1.52;;
60700;SDS011;46541;49.894;10.886;2023-04-25T14:05:36;2.58;;;1.60;;
60700;SDS011;46541;49.894;10.886;2023-04-25T14:08:07;2.67;;;1.23;;
60700;SDS011;46541;49.894;10.886;2023-04-25T14:10:35;2.13;;;1.30;;
60700;SDS011;46541;49.894;10.886;2023-04-25T14:13:03;2.13;;;1.55;;
60700;SDS011;46541;49.894;10.886;2023-04-25T14:15:33;1.90;;;1.52;;
60700;SDS011;46541;49.894;10.886;2023-04-25T14:18:00;1.65;;;1.38;;
60700;SDS011;46541;49.894;10.886;2023-04-25T14:20:28;4.72;;;2.28;;
60700;SDS011;46541;49.894;10.886;2023-04-25T14:22:55;5.55;;;2.42;;
60700;SDS011;46541;49.894;10.886;2023-04-25T14:25:24;2.53;;;1.70;;
60700;SDS011;46541;49.894;10.886;2023-04-25T14:27:51;6.93;;;1.88;;
60700;SDS011;46541;49.894;10.886;2023-04-25T14:30:19;3.67;;;1.98;;
60700;SDS011;46541;49.894;10.886;2023-04-25T14:32:50;4.53;;;1.70;;
60700;SDS011;46541;49.894;10.886;2023-04-25T14:35:17;3.47;;;1.80;;
60700;SDS011;46541;49.894;10.886;2023-04-25T14:37:44;4.28;;;2.00;;
60700;SDS011;46541;49.894;10.886;2023-04-25T14:40:11;2.95;;;2.28;;
60700;SDS011;46541;49.894;10.886;2023-04-25T14:42:39;4.10;;;2.38;;
60700;SDS011;46541;49.894;10.886;2023-04-25T14:45:07;4.18;;;2.20;;
60700;SDS011;46541;49.894;10.886;2023-04-25T14:47:37;6.05;;;2.20;;
60700;SDS011;46541;49.894;10.886;2023-04-25T14:50:05;3.75;;;1.90;;
60700;SDS011;46541;49.894;10.886;2023-04-25T14:52:32;3.95;;;2.05;;
60700;SDS011;46541;49.894;10.886;2023-04-25T14:54:59;5.05;;;2.20;;